Flight Track Log - Related Links

Times and Time Zones

All times are in EDT time to prevent confusion due to time zone crossing. See the AAY894 flight status page for this flight to view local times or setup timezone preferences in your user account.

Time Position Orientation Groundspeed Altitude Reporting Facility
EDT Latitude Longitude Course Direction KTS MPH feet Rate Location/Type
Sun 07:38:24 AM 27.9000 -82.6833 190° South 164 189 900  Level Tampa TRACON
Sun 07:39:54 AM 27.8167 -82.7000 190° South 217 250 3,700 1,846 Climbing Tampa TRACON
Sun 07:41:00 AM 27.8333 -82.7833 283° West 281 323 5,700 2,175 Climbing Tampa TRACON
Sun 07:42:45 AM 27.9600 -82.7728 North 277 319 9,900 2,182 Climbing Jacksonville Center
Sun 07:43:45 AM 28.0433 -82.7561 10° North 293 337 11,700 1,550 Climbing Jacksonville Center
Sun 07:44:45 AM 28.1478 -82.7394 North 331 381 13,000 1,700 Climbing Jacksonville Center
Sun 07:45:45 AM 28.2561 -82.7275 North 371 427 15,100 2,350 Climbing Jacksonville Center
Sun 07:46:45 AM 28.3794 -82.7181 North 391 450 17,700 2,750 Climbing Jacksonville Center
Sun 07:47:45 AM 28.4858 -82.7083 North 391 450 20,600 2,200 Climbing Jacksonville Center
Sun 07:48:45 AM 28.5942 -82.7011 North 385 443 22,100 1,600 Climbing Jacksonville Center
Sun 07:49:45 AM 28.7028 -82.6914 North 385 443 23,800 1,500 Climbing Jacksonville Center
Sun 07:50:45 AM 28.8133 -82.6842 North 390 449 25,100 1,100 Climbing Jacksonville Center
Sun 07:51:45 AM 28.9303 -82.6719 North 397 457 26,000 1,150 Climbing Jacksonville Center
Sun 07:52:45 AM 29.0472 -82.6644 North 409 471 27,400 900 Climbing Jacksonville Center
Sun 07:53:45 AM 29.1619 -82.6547 North 409 471 27,800 400 Climbing Jacksonville Center
Sun 07:54:45 AM 29.2808 -82.6450 North 409 471 28,200 450 Climbing Jacksonville Center
Sun 07:55:45 AM 29.4042 -82.6375 North 425 489 28,700 750 Climbing Jacksonville Center
Sun 07:56:45 AM 29.5250 -82.6014 15° North 437 503 29,700 900 Climbing Jacksonville Center
Sun 07:57:45 AM 29.6419 -82.5581 18° North 437 503 30,500 600 Climbing Jacksonville Center
Sun 07:58:45 AM 29.7650 -82.5217 14° North 442 509 30,900 250 Climbing Jacksonville Center
Sun 07:59:45 AM 29.8881 -82.5189 North 437 503 31,000 50 Climbing Jacksonville Center
Sun 08:00:45 AM 30.0133 -82.5208 359° North 437 503 31,000 -50 Level Jacksonville Center
Sun 08:01:45 AM 30.1239 -82.5228 359° North 437 503 30,900 -50 Descending Jacksonville Center
Sun 08:02:45 AM 30.2492 -82.5222 360° North 437 503 30,900 50 Level Jacksonville Center
Sun 08:03:45 AM 30.3683 -82.5217 360° North 437 503 31,000  Climbing Jacksonville Center
Sun 08:04:45 AM 30.4894 -82.5189 North 431 496 30,900 200 Descending Jacksonville Center
Sun 08:05:45 AM 30.6106 -82.5208 359° North 431 496 31,400 950 Climbing Jacksonville Center
Sun 08:06:45 AM 30.7275 -82.5203 360° North 431 496 32,800 800 Climbing Jacksonville Center
Sun 08:07:45 AM 30.8464 -82.5175 North 420 483 33,000 50 Climbing Jacksonville Center
Sun 08:08:45 AM 30.9675 -82.5169 360° North 420 483 32,900 -50 Descending Jacksonville Center
Sun 08:09:45 AM 31.0906 -82.5142 North 425 489 32,900 50 Level Jacksonville Center
Sun 08:10:45 AM 31.2117 -82.5136 360° North 430 495 33,000  Climbing Jacksonville Center
Sun 08:11:45 AM 31.3308 -82.5156 359° North 430 495 32,900  Descending Jacksonville Center
Sun 08:12:45 AM 31.4561 -82.5078 North 430 495 33,000 50 Climbing Jacksonville Center
Sun 08:13:45 AM 31.5772 -82.5025 North 430 495 33,000  Level Jacksonville Center
Sun 08:14:45 AM 31.6961 -82.4822 North 436 502 33,000  Level Jacksonville Center
Sun 08:16:03 AM 31.8639 -82.4567 North 435 501 33,000  Level Atlanta Center
Sun 08:17:03 AM 31.9844 -82.4350 North 440 506 33,000  Level Atlanta Center
Sun 08:18:03 AM 32.1075 -82.4181 North 440 506 33,000  Level Atlanta Center
Sun 08:19:03 AM 32.2325 -82.3986 North 446 513 33,000  Level Atlanta Center
Sun 08:20:03 AM 32.3386 -82.3819 North 440 506 33,000  Level Atlanta Center
Sun 08:21:03 AM 32.4575 -82.3625 North 435 501 33,000  Level Atlanta Center
Sun 08:22:03 AM 32.5781 -82.3428 North 435 501 33,000  Level Atlanta Center
Sun 08:23:03 AM 32.7031 -82.3233 North 435 501 33,000  Level Atlanta Center
Sun 08:24:03 AM 32.8219 -82.3036 North 440 506 33,000  Level Atlanta Center
Sun 08:25:03 AM 32.9428 -82.2864 North 440 506 33,000  Level Atlanta Center
Sun 08:26:03 AM 33.0656 -82.2664 North 440 506 33,000  Level Atlanta Center
Sun 08:27:03 AM 33.1883 -82.2467 North 440 506 33,000  Level Atlanta Center
Sun 08:28:03 AM 33.3258 -82.2214 North 446 513 33,000  Level Atlanta Center
Sun 08:29:03 AM 33.4486 -82.2014 North 441 507 33,000  Level Atlanta Center
Sun 08:30:03 AM 33.5714 -82.1814 North 441 507 33,000  Level Atlanta Center
Sun 08:31:03 AM 33.6964 -82.1586 North 441 507 33,000  Level Atlanta Center
Sun 08:32:03 AM 33.8214 -82.1383 North 447 514 33,000  Level Atlanta Center
Sun 08:33:03 AM 33.9442 -82.1158 North 447 514 33,000  Level Atlanta Center
Sun 08:34:03 AM 34.0669 -82.0978 North 442 509 33,000  Level Atlanta Center
Sun 08:35:03 AM 34.1814 -82.0753 North 448 516 33,000  Level Atlanta Center
Sun 08:36:03 AM 34.3019 -82.0547 North 443 510 33,000  Level Atlanta Center
Sun 08:37:03 AM 34.4250 -82.0367 North 443 510 33,000  Level Atlanta Center
Sun 08:38:03 AM 34.5456 -82.0136 North 443 510 33,000  Level Atlanta Center
Sun 08:39:03 AM 34.6706 -81.9931 North 443 510 33,000  Level Atlanta Center
Sun 08:40:03 AM 34.7931 -81.9622 12° North 443 510 33,000  Level Atlanta Center
Sun 08:41:03 AM 34.9136 -81.9339 11° North 443 510 33,000  Level Atlanta Center
Sun 08:42:03 AM 35.0342 -81.9031 12° North 438 504 33,000  Level Atlanta Center
Sun 08:43:03 AM 35.1544 -81.8694 13° North 438 504 33,000  Level Atlanta Center
Sun 08:44:03 AM 35.2772 -81.8381 12° North 438 504 33,000  Level Atlanta Center
Sun 08:45:03 AM 35.3994 -81.8042 13° North 443 510 33,000  Level Atlanta Center
Sun 08:46:03 AM 35.5222 -81.7728 12° North 448 516 33,000  Level Atlanta Center
Sun 08:47:03 AM 35.6444 -81.7389 13° North 448 516 33,000  Level Atlanta Center
Sun 08:48:03 AM 35.7669 -81.7047 13° North 448 516 33,000  Level Atlanta Center
Sun 08:49:03 AM 35.8875 -81.6731 12° North 448 516 33,000  Level Atlanta Center
Sun 08:50:03 AM 36.0056 -81.6386 13° North 442 509 33,000  Level Atlanta Center
Sun 08:51:03 AM 36.1197 -81.6072 13° North 436 502 33,000  Level Atlanta Center
Sun 08:52:03 AM 36.2461 -81.5697 13° North 425 489 33,000  Level Atlanta Center
Sun 08:53:03 AM 36.3644 -81.5353 13° North 425 489 33,000  Level Atlanta Center
Sun 08:54:03 AM 36.4825 -81.5031 12° North 430 495 33,000  Level Atlanta Center
Sun 08:55:03 AM 36.5986 -81.4711 12° North 430 495 33,000  Level Atlanta Center
Sun 08:56:52 AM 36.7964 -81.4147 13° North 431 496 33,000  Level Indianapolis Center
Sun 08:57:54 AM 36.9125 -81.3808 13° North 431 496 33,000  Level Indianapolis Center
Sun 08:58:55 AM 37.0428 -81.3444 13° North 430 495 33,000  Level Indianapolis Center
Sun 08:59:56 AM 37.1606 -81.3108 13° North 430 495 33,000  Level Indianapolis Center
Sun 09:00:58 AM 37.2775 -81.2767 13° North 430 495 33,000  Level Indianapolis Center
Sun 09:01:59 AM 37.4028 -81.2372 14° North 430 495 33,000  Level Indianapolis Center
Sun 09:03:01 AM 37.5214 -81.2022 13° North 431 496 33,000  Level Indianapolis Center
Sun 09:04:02 AM 37.6453 -81.1683 12° North 444 511 33,000  Level Indianapolis Center
Sun 09:05:04 AM 37.7622 -81.1339 13° North 438 504 33,000  Level Indianapolis Center
Sun 09:06:05 AM 37.8864 -81.0972 13° North 436 502 33,000  Level Indianapolis Center
Sun 09:07:07 AM 38.0039 -81.0625 13° North 436 502 33,000  Level Indianapolis Center
Sun 09:08:09 AM 38.1225 -81.0300 12° North 436 502 33,000  Level Indianapolis Center
Sun 09:09:10 AM 38.2392 -80.9956 13° North 436 502 33,000  Level Indianapolis Center
Sun 09:10:12 AM 38.3814 -80.9547 13° North 435 501 33,000  Level Indianapolis Center
Sun 09:11:14 AM 38.4997 -80.9197 13° North 436 502 33,000  Level Indianapolis Center
Sun 09:12:15 AM 38.6189 -80.8850 13° North 436 502 33,000  Level Indianapolis Center
Sun 09:13:17 AM 38.7381 -80.8500 13° North 438 504 33,000  Level Indianapolis Center
Sun 09:14:19 AM 38.8575 -80.8139 13° North 439 505 33,000  Level Indianapolis Center
Sun 09:15:20 AM 38.9786 -80.7775 13° North 444 511 33,000  Level Indianapolis Center
Sun 09:16:22 AM 39.0967 -80.7433 13° North 443 510 33,000  Level Indianapolis Center
Sun 09:17:24 AM 39.2369 -80.7008 13° North 438 504 33,000  Level Indianapolis Center
Sun 09:18:26 AM 39.3522 -80.6650 14° North 432 497 33,000  Level Indianapolis Center
Sun 09:19:42 AM 39.5006 -80.6061 17° North 430 495 33,000  Level Cleveland Center
Sun 09:20:44 AM 39.6156 -80.5583 18° North 430 495 33,000  Level Cleveland Center
Sun 09:21:46 AM 39.7294 -80.5072 19° North 432 497 33,000  Level Cleveland Center
Sun 09:22:47 AM 39.8450 -80.4550 19° North 440 506 33,000  Level Cleveland Center
Sun 09:23:49 AM 39.9606 -80.4039 19° North 440 506 33,000  Level Cleveland Center
Sun 09:24:51 AM 40.0761 -80.3536 18° North 439 505 33,000  Level Cleveland Center
Sun 09:25:53 AM 40.1925 -80.3025 19° North 440 506 33,000 -145 Level Cleveland Center
Sun 09:26:55 AM 40.3328 -80.2408 19° North 441 507 32,700 -878 Descending Cleveland Center
Sun 09:27:56 AM 40.4533 -80.1856 19° North 440 506 31,200 -829 Descending Cleveland Center
Sun 09:28:58 AM 40.5717 -80.1342 18° North 443 510 31,000 -97 Descending Cleveland Center
Sun 09:30:00 AM 40.6856 -80.0825 19° North 437 503 31,000 -97 Level Cleveland Center
Sun 09:31:02 AM 40.8000 -80.0311 19° North 437 503 30,800 -968 Descending Cleveland Center
Sun 09:32:04 AM 40.9219 -79.9764 19° North 438 504 29,000 -1,707 Descending Cleveland Center
Sun 09:33:05 AM 41.0381 -79.9233 19° North 439 505 27,300 -1,220 Descending Cleveland Center
Sun 09:34:07 AM 41.1483 -79.8717 19° North 440 506 26,500 -1,065 Descending Cleveland Center
Sun 09:35:09 AM 41.2822 -79.8103 19° North 430 495 25,100 -1,210 Descending Cleveland Center
Sun 09:36:11 AM 41.3861 -79.7619 19° North 406 467 24,000 -537 Descending Cleveland Center
Sun 09:37:12 AM 41.4853 -79.7150 20° North 385 443 24,000  Level Cleveland Center
Sun 09:38:14 AM 41.5839 -79.6697 19° North 380 437 24,000  Level Cleveland Center
Sun 09:39:15 AM 41.6839 -79.6256 18° North 379 436 24,000  Level Cleveland Center
Sun 09:40:17 AM 41.7817 -79.5756 21° North 379 436 24,000 -48 Level Cleveland Center
Sun 09:41:19 AM 41.8997 -79.5211 19° North 379 436 23,900 -780 Descending Cleveland Center
Sun 09:42:20 AM 41.9967 -79.4767 19° North 374 430 22,400 -1,707 Descending Cleveland Center
Sun 09:43:22 AM 42.0919 -79.4319 19° North 367 422 20,400 -2,098 Descending Cleveland Center
Sun 09:44:23 AM 42.1853 -79.3883 19° North 360 414 18,100 -2,195 Descending Cleveland Center
Sun 09:45:25 AM 42.2778 -79.3436 20° North 358 412 15,900 -2,177 Descending Cleveland Center
Sun 09:46:27 AM 42.3689 -79.3003 19° North 354 407 13,600 -2,244 Descending Cleveland Center
Sun 09:47:28 AM 42.4608 -79.2567 19° North 345 397 11,300 -1,268 Descending Cleveland Center
Sun 09:48:30 AM 42.5453 -79.2164 19° North 323 372 11,000 -146 Descending Cleveland Center
Sun 09:49:31 AM 42.6189 -79.1808 20° North 286 329 11,000  Level Cleveland Center
Sun 09:50:33 AM 42.7017 -79.1114 32° Northeast 293 337 11,000 -677 Level Cleveland Center
Sun 09:51:35 AM 42.7672 -79.0533 33° Northeast 281 323 9,600 -1,463 Descending Cleveland Center
Sun 09:52:36 AM 42.8347 -78.9975 31° Northeast 276 318 8,000 -1,561 Descending Cleveland Center
Sun 09:53:38 AM 42.8958 -78.9483 31° Northeast 269 310 6,400 -968 Descending Cleveland Center
Sun 09:54:40 AM 42.9600 -78.9006 29° Northeast 255 293 6,000 -683 Descending Cleveland Center
Sun 09:55:41 AM 43.0133 -78.8608 29° Northeast 217 250 5,000 -1,317 Descending Cleveland Center
Sun 09:56:43 AM 43.0581 -78.8158 36° Northeast 199 229 3,300 -1,512 Descending Cleveland Center
Sun 09:57:44 AM 43.1069 -78.8325 346° North 193 222 1,900 -927 Descending Cleveland Center
Sun 09:58:46 AM 43.1089 -78.8833 273° West 171 197 1,400 -484 Descending Cleveland Center
Sun 10:00:00 AM 43.1000 -78.9333 297° West  Level FlightAware Approximate

Login

Don't have an account? Register now (free) for customized features, flight alerts, and more!